Meteo Giornale » Osservazioni meteo Cile » Curico
ore: 13:00 - Osservazioni Meteo Curico
Lat. 34° 58' S Lon. 71° 14' W Alt. 228 metri s.l.m.
18 °C
Nuvoloso
Temp. 24 Ore
6 °C
19 °C
Nord
9.3 Km/h
Dew point 5 °C
Umidità 42 %
Visibilità 10 Km
Il sole sorge alle ore 07:04
Il sole tramonta alle ore 18:25
| Data e Ora | Cielo e Fenomeni | T °C | DP °C | Um. % | Pres. hPa | Vis. km | Vento km/h | |
|---|---|---|---|---|---|---|---|---|
| Oggi h: 13:00 | Nuvoloso | 18 | 5 | 42 | 1024 | 10 | N 9.3 | |
| Oggi h: 12:00 | Poco Nuvoloso | 17 | 5 | 45 | 1024 | 10 | N 7.4 | |
| Oggi h: 11:00 | Sereno | 16 | 7 | 55 | 1024 | 10 | N 7.4 | |
| Oggi h: 10:00 | Sereno | 14 | 7 | 62 | 1024 | 10 | N 5.5 | |
| Oggi h: 09:00 | Sereno | 11 | 6 | 71 | 1024 | 8 | N 3.7 | |
| Oggi h: 08:00 | Sereno | 8 | 5 | 81 | 1023 | 0 | N 3.7 | |
| Oggi h: 07:00 | Sereno | 6 | 5 | 93 | 1022 | 0 | N 7.4 | |
| Oggi h: 06:00 | Sereno | 7 | 6 | 93 | 1021 | 0 | N 5.5 | |
| Oggi h: 05:00 | Sereno | 8 | 6 | 87 | 1021 | 0 | N 5.5 | |
| Oggi h: 04:00 | Sereno | 8 | 6 | 87 | 1021 | 0 | N 3.7 | |
| Oggi h: 03:00 | Sereno | 9 | 6 | 81 | 1021 | 0 | N 1.8 | |
| Oggi h: 02:00 | Sereno | 8 | 6 | 87 | 1020 | 0 | N 7.4 | |
| Oggi h: 01:00 | Sereno | 9 | 6 | 81 | 1020 | 0 | N 1.8 | |
| Oggi h: 00:00 | Sereno | 10 | 6 | 76 | 1019 | 0 | N 3.7 | |
| Ieri h: 23:00 | Sereno | 11 | 5 | 66 | 1019 | 0 | N 5.5 | |
| Ieri h: 22:00 | Poco Nuvoloso | 12 | 5 | 62 | 1019 | 0 | N 3.7 | |
| Ieri h: 21:00 | Sereno | 14 | 4 | 50 | 1019 | 0 | N 5.5 | |
| Ieri h: 20:00 | Nuvoloso | 14 | 4 | 50 | 1018 | 0 | SO 7.4 | |
| Ieri h: 19:00 | Sereno | 15 | 7 | 58 | 1017 | 0 | S/SO 9.3 | |
| Ieri h: 18:00 | Sereno | 17 | 8 | 55 | 1016 | 10 | S/SO 9.3 | |
| Ieri h: 17:00 | Sereno | 17 | 8 | 55 | 1015 | 10 | S/SO 7.4 | |
| Ieri h: 16:00 | Sereno | 19 | 9 | 52 | 1015 | 10 | S/SO 9.3 | |
| Ieri h: 15:00 | Sereno | 19 | 9 | 52 | 1015 | 10 | O 11.1 | |



